Unity N — V7WI2 — position and weather

sailwx.info

Track history (hours):
 
Tides and Currents Weather Stations Pressure Air Temp Water Temp Dewpoint Dewpoint Depression Visibility Wind Speed Wind Dir Waves Ship Positions

Unity N

Last reported at 2015-Jun-26 16:33 UTC. Time now 2015-Jul-02 05:16 UTC.
Position N 31°05' E 122°28'.

Length 229 m; draft 7 m.

Type: Cargo ship. MMSI: 538090439.

Date/timePositionNaut miles runAvg speedWind from/ knotsBaromVisibWave heightAir tempDewpointWater temp
2015-Jun-26 16:33N 31°05' E 122°28'10 9.8
2015-Jun-26 15:33N 31°07' E 122°17'1212.4
2015-Jun-26 14:33N 31°14' E 122°05'1312.7
2015-Jun-26 13:33N 31°17' E 121°50'1111.2
2015-Jun-26 12:33N 31°21' E 121°38'1010.0
2015-Jun-26 11:34N 31°27' E 121°28'1111.0
2015-Jun-26 10:33N 31°34' E 121°19'1414.0
2015-Jun-26 09:33N 31°44' E 121°07'1312.9
2015-Jun-26 08:33N 31°50' E 120°54'1212.4
2015-Jun-26 07:33N 32°01' E 120°45'1212.1
2015-Jun-26 06:33N 32°04' E 120°32'1210.8
2015-Jun-26 05:28N 31°58' E 120°20'  
2015-Jun-19 03:22N 31°58' E 120°22'0 0.0
2015-Jun-18 19:17N 31°58' E 120°22'0 0.0
2015-Jun-18 13:17N 31°58' E 120°22'0 0.0
2015-Jun-18 03:04N 31°58' E 120°22'0 0.0
2015-Jun-18 02:31N 31°58' E 120°22'  
Track history (hours):
 
Tides and Currents Weather Stations Pressure Air Temp Water Temp Dewpoint Dewpoint Depression Visibility Wind Speed Wind Dir Waves Ship Positions

Unity N

Last reported at 2015-Jun-26 16:33 UTC. Time now 2015-Jul-02 05:16 UTC.
Position N 31°05' E 122°28'.

Length 229 m; draft 7 m.

Type: Cargo ship. MMSI: 538090439.

Date/timePositionNaut miles runAvg speedWind from/ knotsBaromVisibWave heightAir tempDewpointWater temp
2015-Jun-26 16:33N 31°05' E 122°28'10 9.8
2015-Jun-26 15:33N 31°07' E 122°17'1212.4
2015-Jun-26 14:33N 31°14' E 122°05'1312.7
2015-Jun-26 13:33N 31°17' E 121°50'1111.2
2015-Jun-26 12:33N 31°21' E 121°38'1010.0
2015-Jun-26 11:34N 31°27' E 121°28'1111.0
2015-Jun-26 10:33N 31°34' E 121°19'1414.0
2015-Jun-26 09:33N 31°44' E 121°07'1312.9
2015-Jun-26 08:33N 31°50' E 120°54'1212.4
2015-Jun-26 07:33N 32°01' E 120°45'1212.1
2015-Jun-26 06:33N 32°04' E 120°32'1210.8
2015-Jun-26 05:28N 31°58' E 120°20'  
2015-Jun-19 03:22N 31°58' E 120°22'0 0.0
2015-Jun-18 19:17N 31°58' E 120°22'0 0.0
2015-Jun-18 13:17N 31°58' E 120°22'0 0.0
2015-Jun-18 03:04N 31°58' E 120°22'0 0.0
2015-Jun-18 02:31N 31°58' E 120°22'  

Dump ship's entire track history